Time;durP1;ratioP1;P1;durP2;ratioP2;P2;SDS_P1;SDS_P2;PMS_P1;PMS_P2;Temp;Humidity;BMP_temperature;BMP_pressure;BME280_temperature;BME280_humidity;BME280_pressure;Samples;Min_cycle;Max_cycle;Signal;HPM_P1;HPM_P2
2022/07/21 00:00:27;;;;;;;11.90;7.40;;;;;;;24.47;60.51;100561.53;5196696;28;20079;-75
2022/07/21 00:02:58;;;;;;;11.35;6.85;;;;;;;24.49;60.03;100557.72;5201740;28;20475;-75
2022/07/21 00:05:28;;;;;;;16.58;6.93;;;;;;;;;;5201886;28;20033;-75
2022/07/21 00:07:59;;;;;;;12.10;6.83;;;;;;;24.45;60.59;100548.31;5200843;28;20450;-75
2022/07/21 00:10:29;;;;;;;9.13;6.20;;;;;;;24.49;60.36;100540.84;5204813;28;20447;-71
2022/07/21 00:13:00;;;;;;;15.57;7.05;;;;;;;;;;5201592;28;20693;-75
2022/07/21 00:15:30;;;;;;;11.17;6.30;;;;;;;24.47;61.04;100537.47;5201306;28;20035;-75
2022/07/21 00:18:00;;;;;;;15.63;6.40;;;;;;;24.40;60.93;100533.69;5200989;28;20271;-75
2022/07/21 00:20:31;;;;;;;12.07;6.10;;;;;;;24.34;61.42;100532.44;5201361;28;20116;-75
2022/07/21 00:23:01;;;;;;;12.65;6.40;;;;;;;24.49;61.27;100522.97;5201399;28;20033;-75
2022/07/21 00:25:32;;;;;;;12.32;6.00;;;;;;;24.47;61.56;100526.78;5201512;28;20029;-75
2022/07/21 00:28:04;;;;;;;11.32;6.80;;;;;;;24.48;61.76;100520.44;5200665;28;20037;-75
2022/07/21 00:30:34;;;;;;;11.98;6.45;;;;;;;24.37;62.20;100525.97;5202467;28;20028;-75
2022/07/21 00:33:05;;;;;;;11.88;6.00;;;;;;;24.39;62.23;100543.53;5201414;28;20033;-75
2022/07/21 00:35:35;;;;;;;9.10;5.68;;;;;;;;;;5200882;28;20054;-71
2022/07/21 00:38:05;;;;;;;9.10;5.37;;;;;;;24.46;62.27;100536.63;5202289;28;20450;-75
2022/07/21 00:40:36;;;;;;;10.90;5.45;;;;;;;24.28;62.66;100546.38;5204099;28;20495;-75
2022/07/21 00:43:06;;;;;;;8.45;5.78;;;;;;;24.24;62.66;100550.28;5201123;28;20025;-75
2022/07/21 00:45:37;;;;;;;11.18;5.72;;;;;;;24.24;63.13;100560.97;5200978;28;20029;-75
2022/07/21 00:48:07;;;;;;;12.55;5.30;;;;;;;24.38;62.82;100573.91;5200219;28;20057;-74
2022/07/21 00:50:38;;;;;;;8.60;5.30;;;;;;;24.30;63.20;100562.25;5198598;28;20115;-75
2022/07/21 00:53:08;;;;;;;12.68;5.63;;;;;;;24.20;63.36;100574.78;5200758;28;20030;-75
2022/07/21 00:55:42;;;;;;;9.32;5.25;;;;;;;24.36;63.42;100581.22;5202846;28;20039;-75
2022/07/21 00:58:13;;;;;;;9.65;5.32;;;;;;;24.32;63.62;100593.19;5190242;28;20036;-75
2022/07/21 01:00:43;;;;;;;9.55;5.15;;;;;;;24.21;64.74;100600.50;5196174;28;20495;-75
2022/07/21 01:03:14;;;;;;;7.63;4.80;;;;;;;24.33;64.92;100607.38;5198429;28;20040;-75
2022/07/21 01:05:44;;;;;;;9.73;5.43;;;;;;;24.30;65.26;100608.53;5202066;28;20028;-75
2022/07/21 01:08:15;;;;;;;12.88;5.03;;;;;;;24.24;66.06;100610.91;5201776;28;20036;-75
2022/07/21 01:10:45;;;;;;;9.95;5.03;;;;;;;24.24;66.73;100603.72;5203815;28;20020;-75
2022/07/21 01:13:16;;;;;;;8.35;4.72;;;;;;;24.10;67.38;100614.84;5200359;28;20033;-75
2022/07/21 01:15:46;;;;;;;10.63;5.18;;;;;;;24.14;67.81;100613.56;5200296;28;20107;-75
2022/07/21 01:18:17;;;;;;;10.30;5.25;;;;;;;24.19;67.60;100597.13;5199207;28;20466;-75
2022/07/21 01:20:53;;;;;;;9.90;5.13;;;;;;;24.12;68.15;100610.19;5199198;28;20112;-75
2022/07/21 01:23:23;;;;;;;9.48;5.05;;;;;;;24.05;68.26;100603.72;5201859;28;20030;-75
2022/07/21 01:25:53;;;;;;;9.32;5.50;;;;;;;24.04;69.00;100601.19;5201452;28;20422;-75
2022/07/21 01:28:24;;;;;;;9.15;5.57;;;;;;;23.97;69.23;100600.03;5200588;28;20114;-74
2022/07/21 01:30:54;;;;;;;9.52;5.45;;;;;;;24.00;69.78;100599.75;5199578;28;20049;-75
2022/07/21 01:33:24;;;;;;;12.98;5.40;;;;;;;24.01;70.01;100607.66;5201196;28;20093;-74
2022/07/21 01:35:54;;;;;;;11.73;5.30;;;;;;;24.02;69.62;100612.00;5201167;28;20029;-75
2022/07/21 01:41:29;;;;;;;11.60;5.40;;;;;;;23.91;70.38;100619.31;5202482;28;20095;-75
2022/07/21 01:44:05;;;;;;;11.55;5.40;;;;;;;23.95;70.65;100628.72;5200961;28;20091;-72
2022/07/21 01:46:43;;;;;;;7.20;4.68;;;;;;;23.95;70.92;100624.22;5199444;28;20025;-74
2022/07/21 01:49:15;;;;;;;9.65;4.85;;;;;;;23.91;71.28;100638.00;5201149;28;20636;-74
2022/07/21 01:51:46;;;;;;;11.70;5.45;;;;;;;23.90;71.44;100631.78;5200924;28;20033;-75
2022/07/21 01:54:17;;;;;;;12.15;4.97;;;;;;;23.93;71.77;100626.19;5201105;28;20033;-75
2022/07/21 01:56:47;;;;;;;12.13;5.35;;;;;;;23.91;71.79;100617.44;5197353;28;20132;-75
2022/07/21 01:59:18;;;;;;;10.50;5.40;;;;;;;23.90;71.91;100615.78;5200195;28;20150;-75
2022/07/21 02:01:48;;;;;;;10.95;5.30;;;;;;;23.94;71.62;100577.16;5200737;28;20072;-75
2022/07/21 02:04:19;;;;;;;10.48;5.10;;;;;;;23.93;71.73;100548.75;5200301;28;20017;-75
2022/07/21 02:06:49;;;;;;;10.20;5.10;;;;;;;23.88;72.19;100569.66;5199916;28;20021;-74
2022/07/21 02:09:19;;;;;;;10.90;4.95;;;;;;;23.89;72.10;100590.03;5202038;28;20017;-75
2022/07/21 02:11:50;;;;;;;13.07;5.50;;;;;;;23.85;72.64;100585.16;5200591;28;20018;-75
2022/07/21 02:14:20;;;;;;;10.50;5.10;;;;;;;23.92;72.57;100581.78;5200818;28;20059;-74
2022/07/21 02:16:50;;;;;;;10.65;5.35;;;;;;;23.95;72.98;100573.50;5200342;28;20455;-75
2022/07/21 02:19:21;;;;;;;9.82;5.40;;;;;;;23.72;73.43;100574.66;5200237;28;20017;-75
2022/07/21 02:21:51;;;;;;;7.85;4.95;;;;;;;23.82;73.35;100580.03;5200312;28;20039;-75
2022/07/21 02:24:21;;;;;;;9.40;5.05;;;;;;;23.68;73.60;100583.94;5200571;28;20022;-75
2022/07/21 02:26:52;;;;;;;8.75;4.82;;;;;;;23.76;73.90;100599.28;5200010;28;20025;-75
2022/07/21 02:29:22;;;;;;;9.68;4.70;;;;;;;23.92;72.85;100610.31;5200148;28;20028;-75
2022/07/21 02:31:52;;;;;;;9.68;4.95;;;;;;;23.93;72.98;100620.84;5200415;28;20107;-75
2022/07/21 02:34:23;;;;;;;10.20;4.97;;;;;;;23.95;72.62;100615.38;5199948;28;20048;-75
2022/07/21 02:36:53;;;;;;;9.43;5.05;;;;;;;23.97;72.41;100590.22;5200154;28;20463;-75
2022/07/21 02:39:23;;;;;;;7.40;4.10;;;;;;;23.99;72.50;100584.72;5201832;28;20036;-74
2022/07/21 02:41:54;;;;;;;10.18;4.93;;;;;;;24.01;72.74;100591.63;5200361;28;20064;-75
2022/07/21 02:44:24;;;;;;;8.95;4.47;;;;;;;23.93;73.01;100590.63;5200346;28;20100;-75
2022/07/21 02:46:55;;;;;;;10.07;5.00;;;;;;;23.94;72.88;100590.50;5199847;28;20463;-75
2022/07/21 02:49:25;;;;;;;7.65;4.68;;;;;;;23.99;72.81;100590.91;5200220;28;20048;-75
2022/07/21 02:51:55;;;;;;;8.65;4.63;;;;;;;23.98;73.30;100589.22;5194967;28;20091;-74
2022/07/21 02:54:26;;;;;;;10.57;4.72;;;;;;;24.01;73.24;100596.97;5196292;28;20021;-75
2022/07/21 02:56:56;;;;;;;9.45;4.65;;;;;;;24.08;73.42;100598.09;5199627;28;20465;-75
2022/07/21 02:59:26;;;;;;;7.93;4.47;;;;;;;24.06;73.61;100578.69;5199643;28;20037;-75
2022/07/21 03:01:57;;;;;;;8.77;4.50;;;;;;;24.05;73.36;100565.50;5200692;28;20022;-75
2022/07/21 03:04:27;;;;;;;6.70;3.97;;;;;;;23.97;73.80;100559.97;5200429;28;20020;-75
2022/07/21 03:06:57;;;;;;;11.25;4.53;;;;;;;24.05;74.02;100555.63;5200012;28;20040;-75
2022/07/21 03:09:27;;;;;;;8.00;4.70;;;;;;;23.92;74.14;100549.75;5201973;28;20064;-74
2022/07/21 03:11:58;;;;;;;9.55;4.72;;;;;;;23.89;75.04;100559.84;5199723;28;20030;-75
2022/07/21 03:14:28;;;;;;;12.32;4.78;;;;;;;23.96;75.18;100580.53;5200094;28;20104;-75
2022/07/21 03:17:00;;;;;;;8.93;4.43;;;;;;;23.75;76.14;100589.56;5199524;28;20025;-75
2022/07/21 03:19:31;;;;;;;10.75;5.18;;;;;;;23.75;76.01;100579.75;5199744;28;20391;-75
2022/07/21 03:22:01;;;;;;;8.10;4.70;;;;;;;23.41;77.65;100596.22;5200322;28;20079;-75
2022/07/21 03:24:31;;;;;;;12.75;5.28;;;;;;;23.60;77.49;100597.13;5199770;28;20028;-75
2022/07/21 03:27:02;;;;;;;12.00;5.00;;;;;;;23.72;76.64;100595.19;5199445;28;20033;-75
2022/07/21 03:29:32;;;;;;;7.88;4.65;;;;;;;23.61;77.34;100593.50;5199307;28;20025;-75
2022/07/21 03:32:03;;;;;;;10.07;4.90;;;;;;;23.60;77.67;100601.63;5199902;28;20029;-75
2022/07/21 03:34:33;;;;;;;10.70;5.15;;;;;;;23.56;79.47;100610.88;5199849;28;20095;-75
2022/07/21 03:37:04;;;;;;;9.18;5.07;;;;;;;23.34;81.19;100600.41;5199250;28;20033;-75
2022/07/21 03:39:34;;;;;;;13.30;5.25;;;;;;;23.39;82.75;100606.19;5201878;28;20045;-75
2022/07/21 03:42:05;;;;;;;13.80;5.57;;;;;;;23.39;82.60;100611.53;5199871;28;20025;-75
2022/07/21 03:44:35;;;;;;;10.52;5.60;;;;;;;23.21;83.17;100626.47;5203024;28;20507;-75
2022/07/21 03:47:05;;;;;;;12.07;5.10;;;;;;;23.15;84.22;100632.31;5202853;28;20033;-75
2022/07/21 03:49:36;;;;;;;11.00;5.57;;;;;;;23.03;84.22;100633.34;5202987;28;20021;-75
2022/07/21 03:52:06;;;;;;;10.18;4.90;;;;;;;23.13;83.64;100645.78;5203331;28;20057;-74
2022/07/21 03:54:36;;;;;;;9.27;5.35;;;;;;;23.18;83.95;100656.09;5203021;28;20041;-75
2022/07/21 03:57:07;;;;;;;13.98;5.13;;;;;;;23.18;83.79;100658.75;5201266;28;20022;-75
2022/07/21 03:59:37;;;;;;;10.93;5.50;;;;;;;23.21;83.47;100669.16;5201373;28;20490;-75
2022/07/21 04:02:07;;;;;;;11.15;5.55;;;;;;;23.30;83.78;100679.00;5203314;28;20282;-75
2022/07/21 04:04:38;;;;;;;12.80;5.15;;;;;;;23.27;83.81;100681.94;5203356;28;20053;-75
2022/07/21 04:07:08;;;;;;;9.35;5.40;;;;;;;23.23;84.30;100670.69;5202748;28;20037;-75
2022/07/21 04:09:38;;;;;;;10.95;5.60;;;;;;;23.35;83.72;100674.97;5204651;28;20525;-75
2022/07/21 04:12:09;;;;;;;12.25;5.40;;;;;;;23.41;84.13;100682.47;5202479;28;20021;-75
2022/07/21 04:14:39;;;;;;;9.52;5.50;;;;;;;23.24;85.72;100695.56;5202743;28;20052;-75
2022/07/21 04:17:09;;;;;;;10.15;5.75;;;;;;;23.14;86.74;100718.63;5201204;28;20100;-75
2022/07/21 04:19:40;;;;;;;11.63;5.53;;;;;;;23.03;88.50;100724.03;5202893;28;20022;-74
2022/07/21 04:22:10;;;;;;;7.75;5.03;;;;;;;23.16;89.31;100703.38;5203030;28;20788;-75
2022/07/21 04:24:41;;;;;;;12.57;5.82;;;;;;;23.03;93.06;100682.19;5202420;28;20029;-75
2022/07/21 04:27:11;;;;;;;10.52;5.60;;;;;;;22.82;95.96;100694.66;5202193;28;20029;-74
2022/07/21 04:29:42;;;;;;;8.20;5.40;;;;;;;22.56;99.57;100691.66;5197520;28;20076;-75
2022/07/21 04:32:12;;;;;;;10.27;5.35;;;;;;;22.63;99.58;100698.16;5202868;28;20367;-75
2022/07/21 04:34:43;;;;;;;10.93;5.50;;;;;;;22.56;100.00;100692.50;5202816;28;20498;-75
2022/07/21 04:37:13;;;;;;;10.07;5.20;;;;;;;22.41;100.00;100680.44;5201829;28;20029;-75
2022/07/21 04:39:43;;;;;;;9.77;5.63;;;;;;;22.14;100.00;100692.47;5204000;28;20026;-75
2022/07/21 04:42:14;;;;;;;9.45;5.35;;;;;;;22.26;100.00;100720.78;5202193;28;20029;-74
2022/07/21 04:44:44;;;;;;;9.35;5.47;;;;;;;21.86;100.00;100728.44;5202417;28;20029;-75
2022/07/21 04:47:15;;;;;;;11.40;6.28;;;;;;;21.58;100.00;100722.75;5202046;28;20037;-75
2022/07/21 04:49:46;;;;;;;15.52;5.60;;;;;;;21.55;100.00;100717.66;5201106;28;20041;-75
2022/07/21 04:52:16;;;;;;;9.13;4.75;;;;;;;21.79;100.00;100721.06;5201865;28;20036;-75
2022/07/21 04:54:46;;;;;;;9.55;5.20;;;;;;;21.80;100.00;100728.94;5202211;28;20471;-75
2022/07/21 04:57:17;;;;;;;8.30;5.00;;;;;;;21.84;100.00;100734.84;5200270;28;20112;-76
2022/07/21 04:59:47;;;;;;;11.20;5.20;;;;;;;21.74;100.00;100737.41;5201683;28;20521;-75
2022/07/21 05:02:17;;;;;;;8.43;4.90;;;;;;;21.87;100.00;100723.97;5200587;28;20017;-75
2022/07/21 05:04:48;;;;;;;9.25;4.50;;;;;;;22.03;100.00;100709.31;5201809;28;20025;-76
2022/07/21 05:07:18;;;;;;;6.70;4.55;;;;;;;22.02;100.00;100712.09;5200684;28;20021;-76
2022/07/21 05:09:49;;;;;;;11.93;4.95;;;;;;;21.94;100.00;100710.03;5203394;28;20075;-76
2022/07/21 05:12:19;;;;;;;6.75;4.32;;;;;;;21.74;100.00;100731.25;5201181;28;20033;-76
2022/07/21 05:14:49;;;;;;;8.65;4.40;;;;;;;21.66;100.00;100733.66;5201986;28;20025;-76
2022/07/21 05:17:20;;;;;;;8.38;4.22;;;;;;;21.55;100.00;100725.66;5201318;28;20033;-74
2022/07/21 05:19:50;;;;;;;8.38;4.65;;;;;;;21.54;100.00;100731.94;5201540;28;20013;-76
2022/07/21 05:22:20;;;;;;;7.47;4.10;;;;;;;21.66;100.00;100757.59;5201820;28;20022;-76
2022/07/21 05:24:51;;;;;;;10.48;4.70;;;;;;;21.58;100.00;100760.00;5200317;28;20356;-75
2022/07/21 05:27:21;;;;;;;7.38;4.32;;;;;;;21.67;100.00;100761.94;5200757;28;20025;-75
2022/07/21 05:29:52;;;;;;;8.27;4.50;;;;;;;21.75;100.00;100764.88;5200917;28;20070;-75
2022/07/21 05:32:22;;;;;;;6.60;4.43;;;;;;;21.68;100.00;100761.84;5201159;28;20116;-75
2022/07/21 05:34:52;;;;;;;8.23;4.55;;;;;;;21.73;100.00;100772.97;5201745;28;20482;-75
2022/07/21 05:37:23;;;;;;;7.30;4.40;;;;;;;21.70;100.00;100781.19;5199828;28;20530;-76
2022/07/21 05:39:53;;;;;;;7.97;4.72;;;;;;;21.47;100.00;100770.59;5202233;28;20029;-76
2022/07/21 05:42:23;;;;;;;10.48;5.03;;;;;;;21.36;100.00;100750.16;5196110;28;20025;-74
2022/07/21 05:44:55;;;;;;;7.60;4.50;;;;;;;21.35;100.00;100753.78;5198657;28;20033;-75
2022/07/21 05:47:25;;;;;;;6.97;4.38;;;;;;;21.63;100.00;100765.81;5200534;28;20028;-75
2022/07/21 05:49:55;;;;;;;7.53;4.25;;;;;;;21.78;100.00;100772.59;5201080;28;20030;-75
2022/07/21 05:52:26;;;;;;;9.35;4.25;;;;;;;21.77;100.00;100773.56;5196640;28;20160;-75
2022/07/21 05:54:56;;;;;;;7.63;3.88;;;;;;;21.90;100.00;100774.31;5200156;28;20029;-75
2022/07/21 05:57:26;;;;;;;6.38;3.53;;;;;;;22.11;100.00;100773.44;5198149;28;20100;-75
2022/07/21 05:59:58;;;;;;;6.90;4.22;;;;;;;22.01;100.00;100771.63;5196997;28;20030;-75
2022/07/21 06:02:30;;;;;;;7.68;4.20;;;;;;;22.10;100.00;100778.91;5182274;28;20033;-75
2022/07/21 06:05:01;;;;;;;7.55;3.90;;;;;;;22.39;100.00;100764.97;5199932;28;20021;-75
2022/07/21 06:07:31;;;;;;;8.82;3.70;;;;;;;22.54;100.00;100746.88;5197979;28;20363;-75
2022/07/21 06:10:01;;;;;;;7.93;4.15;;;;;;;22.61;100.00;100743.59;5201746;28;20483;-76
2022/07/21 06:12:33;;;;;;;6.13;3.80;;;;;;;23.47;100.00;100726.44;5200832;28;20025;-75
2022/07/21 06:15:03;;;;;;;8.55;3.78;;;;;;;24.27;100.00;100717.50;5199536;28;20048;-75
2022/07/21 06:17:44;;;;;;;5.90;3.28;;;;;;;24.61;96.31;100719.72;5199988;28;20017;-75
2022/07/21 06:20:15;;;;;;;8.90;3.90;;;;;;;25.18;93.67;100741.94;5200284;28;20121;-76
2022/07/21 06:22:45;;;;;;;5.32;3.65;;;;;;;25.59;94.74;100754.97;5200885;28;20120;-76
2022/07/21 06:25:16;;;;;;;6.72;3.33;;;;;;;25.91;90.98;100773.34;5199315;28;20029;-76
2022/07/21 06:27:47;;;;;;;6.18;3.53;;;;;;;25.91;91.58;100768.84;5198689;28;20021;-76
2022/07/21 06:30:17;;;;;;;6.68;3.60;;;;;;;25.37;91.58;100774.06;5199343;28;20028;-76
2022/07/21 06:32:47;;;;;;;5.95;3.38;;;;;;;26.19;90.37;100773.22;5200040;28;20402;-75
2022/07/21 06:35:18;;;;;;;7.80;3.20;;;;;;;27.35;85.72;100775.81;5200085;28;20022;-77
2022/07/21 06:37:48;;;;;;;6.25;3.40;;;;;;;26.04;87.13;100790.78;5204367;22;20056;-73
2022/07/21 06:40:19;;;;;;;6.47;3.22;;;;;;;27.08;84.96;100773.22;5163283;28;20030;-73
2022/07/21 06:42:49;;;;;;;7.05;3.20;;;;;;;27.48;81.30;100771.72;5183177;28;20053;-73
2022/07/21 06:45:20;;;;;;;8.02;3.58;;;;;;;26.74;81.95;100781.09;5178853;28;20029;-72
2022/07/21 06:47:59;;;;;;;5.15;3.20;;;;;;;27.35;78.68;100779.34;5178292;28;20038;-73
2022/07/21 06:50:29;;;;;;;6.60;3.40;;;;;;;26.87;80.18;100784.25;5175635;28;20079;-73
2022/07/21 06:53:00;;;;;;;7.50;3.42;;;;;;;26.06;84.20;100780.78;5178389;28;20026;-73
2022/07/21 06:55:31;;;;;;;6.03;3.42;;;;;;;26.92;82.42;100784.63;5179983;28;20026;-73
2022/07/21 06:58:13;;;;;;;6.10;3.65;;;;;;;26.54;81.30;100788.59;5180868;28;20033;-72
2022/07/21 07:00:45;;;;;;;5.70;3.75;;;;;;;27.09;80.31;100791.84;5179992;28;20060;-76
2022/07/21 07:03:16;;;;;;;7.55;3.40;;;;;;;27.46;75.86;100791.69;5180589;28;20444;-76
2022/07/21 07:05:48;;;;;;;7.18;3.80;;;;;;;26.87;76.61;100786.09;5179551;28;20025;-74
2022/07/21 07:08:19;;;;;;;6.53;3.60;;;;;;;26.02;79.40;100786.56;5178304;28;20034;-74
2022/07/21 07:10:49;;;;;;;6.75;3.58;;;;;;;27.02;77.84;100781.88;5183199;28;20079;-74
2022/07/21 07:13:19;;;;;;;7.70;4.00;;;;;;;27.02;77.87;100790.78;5179519;28;20026;-74
2022/07/21 07:15:50;;;;;;;7.88;3.65;;;;;;;27.76;75.03;100786.72;5179897;28;20022;-76
2022/07/21 07:18:22;;;;;;;7.28;3.75;;;;;;;27.01;76.76;100794.47;5180425;28;20026;-76
2022/07/21 07:20:52;;;;;;;8.02;3.90;;;;;;;26.21;77.61;100798.03;5183940;28;20546;-74
2022/07/21 07:23:22;;;;;;;10.13;3.35;;;;;;;25.54;79.45;100807.25;5166603;28;20112;-76
2022/07/21 07:25:53;;;;;;;6.10;3.30;;;;;;;25.74;77.94;100808.91;5183876;28;20017;-76
2022/07/21 07:28:23;;;;;;;9.00;3.47;;;;;;;25.45;80.68;100805.47;5185288;28;20028;-74
2022/07/21 07:30:53;;;;;;;9.10;3.80;;;;;;;25.24;82.98;100804.75;5184902;28;20061;-76
2022/07/21 07:33:24;;;;;;;9.90;3.83;;;;;;;25.84;81.47;100799.00;5181455;28;20436;-75
2022/07/21 07:35:56;;;;;;;8.75;3.80;;;;;;;27.18;77.46;100796.34;5183570;28;20026;-76
2022/07/21 07:38:26;;;;;;;6.55;3.65;;;;;;;28.60;73.45;100803.75;5178799;28;20022;-75
2022/07/21 07:40:56;;;;;;;8.53;3.77;;;;;;;29.02;71.33;100795.47;5185818;28;20527;-76
2022/07/21 07:43:27;;;;;;;7.10;3.60;;;;;;;29.10;70.53;100784.69;5183639;28;20257;-76
2022/07/21 07:45:57;;;;;;;5.53;3.50;;;;;;;29.27;69.30;100786.38;5181593;28;20029;-75
2022/07/21 07:48:27;;;;;;;6.20;3.42;;;;;;;28.07;72.08;100795.97;5182279;28;20025;-76
2022/07/21 07:50:58;;;;;;;8.68;3.38;;;;;;;26.70;78.13;100804.88;5182827;28;20049;-74
2022/07/21 07:53:28;;;;;;;7.03;3.65;;;;;;;26.59;77.35;100802.38;5183199;28;20018;-74
2022/07/21 07:55:58;;;;;;;8.68;3.70;;;;;;;26.74;79.40;100805.25;5182579;28;20030;-75
2022/07/21 07:58:29;;;;;;;5.15;3.42;;;;;;;26.73;77.44;100811.59;5183016;28;20042;-76
2022/07/21 08:00:59;;;;;;;6.60;3.58;;;;;;;27.93;74.74;100793.03;5182354;28;20033;-76
2022/07/21 08:03:30;;;;;;;9.57;4.20;;;;;;;28.15;71.92;100798.69;5182852;28;20042;-75
2022/07/21 08:06:03;;;;;;;8.57;4.28;;;;;;;27.88;73.10;100796.19;5182724;28;20021;-75
2022/07/21 08:08:34;;;;;;;7.55;3.72;;;;;;;28.25;72.47;100802.09;5177042;28;20104;-76
2022/07/21 08:11:04;;;;;;;7.72;3.90;;;;;;;28.03;70.70;100824.19;5185396;28;20610;-76
2022/07/21 08:13:35;;;;;;;5.63;3.42;;;;;;;28.70;71.23;100815.25;5186375;28;20021;-76
2022/07/21 08:16:05;;;;;;;7.40;3.65;;;;;;;29.32;68.81;100807.44;5183824;28;20108;-76
2022/07/21 08:18:36;;;;;;;7.32;3.40;;;;;;;30.78;66.06;100799.69;5180378;28;20489;-75
2022/07/21 08:21:06;;;;;;;5.35;2.83;;;;;;;31.25;64.74;100798.53;5183269;28;20061;-76
2022/07/21 08:23:37;;;;;;;6.30;3.00;;;;;;;31.12;65.74;100807.25;5182144;28;20387;-76
2022/07/21 08:26:07;;;;;;;5.43;3.03;;;;;;;29.57;68.72;100807.28;5182250;28;20061;-76
2022/07/21 08:28:38;;;;;;;7.38;3.55;;;;;;;29.15;69.06;100813.84;5190007;28;20083;-76
2022/07/21 08:31:08;;;;;;;8.07;3.10;;;;;;;29.04;69.75;100825.78;5182747;28;20026;-75
2022/07/21 08:33:38;;;;;;;6.47;3.30;;;;;;;28.29;71.73;100821.47;5181919;28;20025;-76
2022/07/21 08:36:10;;;;;;;7.80;3.67;;;;;;;28.44;70.67;100817.19;5182200;28;20044;-76
2022/07/21 08:38:40;;;;;;;8.15;3.78;;;;;;;28.08;74.00;100821.84;5181334;28;20351;-76
2022/07/21 08:41:11;;;;;;;7.93;3.58;;;;;;;28.03;72.21;100826.88;5183595;28;20144;-75
2022/07/21 08:43:42;;;;;;;7.32;3.83;;;;;;;26.82;76.31;100829.50;5182501;28;20521;-76
2022/07/21 08:46:15;;;;;;;10.05;3.20;;;;;;;26.85;76.40;100826.50;5184159;28;20034;-72
2022/07/21 08:48:45;;;;;;;7.63;3.53;;;;;;;26.77;76.92;100836.31;5178654;28;21318;-74
2022/07/21 08:51:16;;;;;;;6.93;3.20;;;;;;;26.53;77.93;100832.50;5176632;28;20048;-74
2022/07/21 08:53:47;;;;;;;5.93;3.67;;;;;;;26.83;78.56;100833.00;5161008;28;20029;-74
2022/07/21 08:56:18;;;;;;;6.57;3.47;;;;;;;26.92;76.49;100832.09;5175479;28;20042;-74
2022/07/21 08:58:48;;;;;;;6.82;3.00;;;;;;;26.91;77.52;100830.44;5177960;28;20438;-74
2022/07/21 09:01:18;;;;;;;8.30;3.50;;;;;;;26.09;80.05;100831.41;5170924;28;20038;-74
2022/07/21 09:03:52;;;;;;;8.55;3.42;;;;;;;25.95;81.22;100834.53;5179143;28;20026;-73
2022/07/21 09:06:22;;;;;;;6.63;3.58;;;;;;;26.46;79.45;100829.53;5178390;28;20038;-73
2022/07/21 09:08:54;;;;;;;5.57;3.28;;;;;;;26.61;80.48;100837.94;5176557;28;20487;-73
2022/07/21 09:11:30;;;;;;;4.35;3.30;;;;;;;26.86;80.00;100833.56;5184103;28;20037;-73
2022/07/21 09:14:11;;;;;;;10.27;3.28;;;;;;;27.05;78.23;100837.91;5176607;28;20029;-74
2022/07/21 09:16:44;;;;;;;5.15;2.78;;;;;;;26.54;78.39;100837.69;5183301;28;20072;-74
2022/07/21 09:19:20;;;;;;;5.50;2.72;;;;;;;26.47;80.16;100843.75;5181228;28;20022;-74
2022/07/21 09:21:54;;;;;;;4.95;2.63;;;;;;;26.15;81.48;100832.66;5179569;28;20038;-73
2022/07/21 09:24:33;;;;;;;4.95;2.70;;;;;;;26.21;82.28;100838.25;5179674;28;20026;-74
2022/07/21 09:27:15;;;;;;;5.25;2.53;;;;;;;25.91;80.44;100840.31;5175688;28;20045;-73
2022/07/21 09:29:51;;;;;;;4.78;2.95;;;;;;;26.28;81.78;100838.50;5175347;28;20404;-73
2022/07/21 09:32:47;;;;;;;7.57;3.00;;;;;;;26.72;77.85;100830.53;5179566;28;20034;-73
2022/07/21 09:35:20;;;;;;;;;;;;;;;28.39;72.36;100828.41;5178383;28;20042;-73
2022/07/21 09:37:50;;;;;;;5.95;2.80;;;;;;;28.89;70.98;100826.59;5179556;28;19917;-73
2022/07/21 09:40:20;;;;;;;5.03;2.95;;;;;;;28.68;70.75;100831.53;5182213;28;20472;-73
2022/07/21 09:42:51;;;;;;;3.83;2.65;;;;;;;28.83;70.25;100827.19;5181492;28;20022;-71
2022/07/21 09:45:22;;;;;;;3.17;1.80;;;;;;;27.48;74.20;100863.03;5180950;28;20036;-74
2022/07/21 09:47:52;;;;;;;3.53;1.58;;;;;;;25.98;79.00;100841.47;5182175;28;20044;-73
2022/07/21 09:50:22;;;;;;;5.28;1.52;;;;;;;27.44;75.39;100850.09;5179373;28;20483;-73
2022/07/21 09:52:55;;;;;;;2.08;1.30;;;;;;;28.69;71.04;100849.41;5179289;28;20053;-73
2022/07/21 09:55:25;;;;;;;2.95;1.40;;;;;;;28.65;70.13;100848.00;5178688;28;20027;-73
2022/07/21 09:57:58;;;;;;;1.42;1.10;;;;;;;29.43;67.66;100837.56;5174813;28;20034;-75
2022/07/21 10:00:28;;;;;;;2.97;1.10;;;;;;;29.32;67.45;100840.63;5174205;28;20644;-74
2022/07/21 10:03:01;;;;;;;2.53;1.08;;;;;;;29.07;69.36;100846.97;5176618;28;20029;-73
2022/07/21 10:05:31;;;;;;;2.13;1.30;;;;;;;29.76;68.99;100847.38;5172234;28;20022;-73
2022/07/21 10:08:03;;;;;;;2.60;1.50;;;;;;;28.88;70.87;100863.41;5174166;28;20068;-73
2022/07/21 10:10:33;;;;;;;1.73;1.27;;;;;;;28.32;70.55;100864.19;5179957;28;20617;-74
2022/07/21 10:13:04;;;;;;;2.00;1.25;;;;;;;27.93;71.19;100871.81;5180934;28;20025;-73
2022/07/21 10:15:34;;;;;;;1.90;1.20;;;;;;;27.04;74.12;100865.75;5181148;28;20017;-73
2022/07/21 10:18:06;;;;;;;1.55;1.10;;;;;;;27.55;73.67;100874.00;5181826;28;20088;-73
2022/07/21 10:20:40;;;;;;;2.60;1.10;;;;;;;27.55;72.61;100863.25;5178909;28;20030;-74
2022/07/21 10:23:37;;;;;;;2.40;0.93;;;;;;;27.74;71.80;100863.09;5179845;28;20060;-74
2022/07/21 10:26:08;;;;;;;1.63;0.80;;;;;;;27.51;72.60;100857.38;5176363;28;20029;-73
2022/07/21 10:28:39;;;;;;;1.92;1.05;;;;;;;27.68;72.90;100851.13;5178740;28;20076;-73
2022/07/21 10:31:21;;;;;;;2.50;1.38;;;;;;;27.75;72.28;100851.38;5177089;28;20018;-73
2022/07/21 10:33:54;;;;;;;2.58;1.20;;;;;;;27.79;72.57;100845.50;5179387;28;20080;-73
2022/07/21 10:36:27;;;;;;;2.00;1.20;;;;;;;28.03;71.77;100843.00;5178278;28;20029;-72
2022/07/21 10:39:07;;;;;;;1.88;1.33;;;;;;;28.04;70.68;100842.00;5174974;28;20526;-72
2022/07/21 10:41:37;;;;;;;3.25;1.48;;;;;;;27.50;70.62;100844.09;5184008;28;20025;-72
2022/07/21 10:44:26;;;;;;;2.38;1.80;;;;;;;26.97;72.59;100836.00;5176273;28;20053;-72
2022/07/21 10:47:10;;;;;;;2.17;1.75;;;;;;;27.66;71.53;100837.00;5177252;28;20105;-73
2022/07/21 10:49:43;;;;;;;1.95;1.33;;;;;;;27.97;70.32;100832.03;5177686;28;20387;-72
2022/07/21 10:52:35;;;;;;;3.55;1.80;;;;;;;28.02;70.49;100833.25;5179775;28;20025;-72
2022/07/21 10:55:28;;;;;;;3.30;1.92;;;;;;;28.40;69.90;100832.78;5180193;28;20033;-73
2022/07/21 10:58:14;;;;;;;3.53;1.63;;;;;;;28.83;68.68;100829.91;5179092;28;20116;-72
2022/07/21 11:00:51;;;;;;;4.22;1.90;;;;;;;27.82;68.47;100847.06;5177415;28;20044;-73
2022/07/21 11:03:30;;;;;;;3.05;2.10;;;;;;;27.84;67.47;100842.34;5182859;28;20101;-73
2022/07/21 11:06:06;;;;;;;3.08;2.13;;;;;;;27.70;68.53;100845.56;5178771;28;20411;-73
2022/07/21 11:08:47;;;;;;;4.35;2.22;;;;;;;27.55;69.54;100845.31;5182357;28;20028;-73
2022/07/21 11:11:24;;;;;;;3.63;2.22;;;;;;;27.81;68.69;100843.50;5185928;28;20038;-73
2022/07/21 11:14:04;;;;;;;3.03;2.17;;;;;;;27.39;69.15;100841.63;5182939;28;20029;-72
2022/07/21 11:16:52;;;;;;;2.70;2.05;;;;;;;27.07;69.86;100846.69;5181639;28;20049;-74
2022/07/21 11:19:46;;;;;;;3.80;2.38;;;;;;;27.19;71.54;100840.97;5184738;28;20036;-74
2022/07/21 11:22:17;;;;;;;3.83;2.47;;;;;;;27.54;70.14;100838.25;5213100;28;20048;-74
2022/07/21 11:24:55;;;;;;;3.40;2.45;;;;;;;27.88;69.11;100823.06;5181982;28;20026;-73
2022/07/21 11:27:28;;;;;;;3.88;2.88;;;;;;;28.02;68.70;100819.81;5180167;28;20063;-74
2022/07/21 11:30:01;;;;;;;3.72;2.67;;;;;;;27.87;69.43;100810.66;5177948;28;20034;-73
2022/07/21 11:32:31;;;;;;;4.45;2.42;;;;;;;27.75;69.76;100819.97;5182128;28;20034;-74
2022/07/21 11:35:05;;;;;;;3.90;2.30;;;;;;;27.68;68.57;100818.88;5182438;28;20185;-74
2022/07/21 11:37:42;;;;;;;3.17;2.08;;;;;;;28.01;67.61;100810.06;5180420;28;20053;-74
2022/07/21 11:40:18;;;;;;;3.45;2.42;;;;;;;27.89;66.78;100803.25;5182161;28;20033;-73
2022/07/21 11:42:51;;;;;;;4.90;2.28;;;;;;;28.05;67.03;100803.34;5182905;28;20123;-74
2022/07/21 11:45:25;;;;;;;4.28;2.55;;;;;;;28.57;67.63;100794.19;5181435;28;20087;-72
2022/07/21 11:47:56;;;;;;;3.45;2.38;;;;;;;28.80;65.84;100792.56;5182892;28;20127;-74